Time;durP1;ratioP1;P1;durP2;ratioP2;P2;SDS_P1;SDS_P2;PMS_P1;PMS_P2;Temp;Humidity;BMP_temperature;BMP_pressure;BME280_temperature;BME280_humidity;BME280_pressure;Samples;Min_cycle;Max_cycle;Signal;HPM_P1;HPM_P2
2022/03/30 00:01:35;;;;;;;47.38;21.92;;;4.40;99.90;;;;;;5014803;28;20060;-85
2022/03/30 00:04:02;;;;;;;45.05;22.17;;;4.50;99.90;;;;;;5014821;28;20050;-86
2022/03/30 00:06:29;;;;;;;42.05;21.95;;;4.60;99.90;;;;;;5014678;28;20111;-86
2022/03/30 00:08:56;;;;;;;43.47;21.60;;;4.60;99.90;;;;;;5014631;28;20151;-86
2022/03/30 00:11:23;;;;;;;42.25;21.90;;;4.70;99.90;;;;;;5014566;28;20486;-86
2022/03/30 00:13:50;;;;;;;48.65;24.13;;;4.70;99.90;;;;;;5014567;28;20136;-86
2022/03/30 00:16:17;;;;;;;45.33;24.42;;;4.80;99.90;;;;;;5014738;28;20133;-86
2022/03/30 00:18:44;;;;;;;44.80;23.85;;;4.80;99.90;;;;;;5015756;28;20046;-86
2022/03/30 00:21:11;;;;;;;44.70;24.00;;;4.80;99.90;;;;;;5015294;28;20141;-86
2022/03/30 00:23:37;;;;;;;40.00;22.48;;;4.80;99.90;;;;;;5014507;28;20077;-86
2022/03/30 00:26:04;;;;;;;44.47;23.65;;;4.80;99.90;;;;;;5015528;28;20050;-86
2022/03/30 00:28:31;;;;;;;42.13;21.98;;;4.80;99.90;;;;;;5014390;28;20157;-86
2022/03/30 00:30:58;;;;;;;42.47;23.35;;;4.80;99.90;;;;;;5014542;28;20079;-86
2022/03/30 00:33:25;;;;;;;41.58;22.00;;;4.80;99.90;;;;;;5015189;28;20081;-86
2022/03/30 00:35:52;;;;;;;41.75;22.38;;;4.80;99.90;;;;;;5015353;28;20141;-86
2022/03/30 00:38:19;;;;;;;39.95;22.15;;;4.80;99.90;;;;;;5015437;28;20069;-86
2022/03/30 00:40:47;;;;;;;45.85;22.55;;;4.70;99.90;;;;;;5014117;28;20096;-86
2022/03/30 00:43:15;;;;;;;41.63;22.35;;;4.70;99.90;;;;;;5013945;28;20142;-86
2022/03/30 00:45:42;;;;;;;44.60;22.92;;;4.70;99.90;;;;;;5015186;28;20050;-85
2022/03/30 00:48:09;;;;;;;37.15;22.05;;;4.60;99.90;;;;;;5013880;28;20049;-85
2022/03/30 00:50:36;;;;;;;41.38;22.60;;;4.60;99.90;;;;;;5014210;28;20132;-85
2022/03/30 00:53:03;;;;;;;47.92;24.65;;;4.50;99.90;;;;;;5014033;28;20498;-86
2022/03/30 00:55:32;;;;;;;53.42;25.23;;;4.50;99.90;;;;;;5015097;28;20073;-85
2022/03/30 00:57:59;;;;;;;42.38;24.95;;;4.50;99.90;;;;;;5013795;28;20146;-86
2022/03/30 01:00:25;;;;;;;45.22;24.58;;;4.30;99.90;;;;;;5013121;28;20049;-86
2022/03/30 01:02:53;;;;;;;45.85;23.67;;;4.20;99.90;;;;;;5015121;28;20141;-86
2022/03/30 01:05:20;;;;;;;46.65;23.80;;;4.30;99.90;;;;;;5014760;28;20078;-86
2022/03/30 01:07:47;;;;;;;49.97;23.27;;;4.30;99.90;;;;;;5013574;28;20081;-86
2022/03/30 01:10:16;;;;;;;44.50;25.00;;;4.30;99.90;;;;;;5013633;28;20080;-86
2022/03/30 01:12:44;;;;;;;44.88;25.20;;;4.40;99.90;;;;;;5014600;28;20124;-86
2022/03/30 01:15:12;;;;;;;44.58;23.55;;;4.30;99.90;;;;;;5014484;28;20053;-86
2022/03/30 01:17:39;;;;;;;49.30;25.30;;;4.20;99.90;;;;;;5013518;28;20115;-85
2022/03/30 01:20:08;;;;;;;46.22;25.77;;;4.20;99.90;;;;;;5014552;28;20049;-86
2022/03/30 01:22:35;;;;;;;43.95;24.67;;;4.20;99.90;;;;;;5013350;28;20133;-86
2022/03/30 01:25:03;;;;;;;49.00;24.17;;;4.20;99.90;;;;;;5013411;28;20434;-86
2022/03/30 01:27:30;;;;;;;46.33;24.77;;;4.10;99.90;;;;;;5014366;28;20137;-86
2022/03/30 01:32:43;;;;;;;50.53;25.85;;;4.20;99.90;;;;;;5014857;28;20421;-86
2022/03/30 01:35:13;;;;;;;48.65;25.58;;;4.10;99.90;;;;;;5013316;28;20054;-85
2022/03/30 01:37:40;;;;;;;50.90;25.70;;;4.10;99.90;;;;;;5014013;28;20058;-86
2022/03/30 01:40:07;;;;;;;50.45;26.17;;;4.10;99.90;;;;;;5012719;28;20060;-85
2022/03/30 01:42:35;;;;;;;50.78;26.52;;;4.20;99.90;;;;;;5012835;28;20470;-86
2022/03/30 01:45:03;;;;;;;49.42;25.63;;;4.30;99.90;;;;;;5012855;28;20050;-86
2022/03/30 01:47:30;;;;;;;48.72;26.25;;;4.30;99.90;;;;;;5013193;28;20114;-86
2022/03/30 01:49:57;;;;;;;62.53;26.08;;;4.30;99.90;;;;;;5013165;28;20549;-85
2022/03/30 01:52:24;;;;;;;53.47;25.10;;;4.40;99.90;;;;;;5013018;28;20081;-85
2022/03/30 01:54:51;;;;;;;51.63;26.80;;;4.40;99.90;;;;;;5012846;28;20107;-85
2022/03/30 01:57:18;;;;;;;49.50;25.58;;;4.40;99.90;;;;;;5012280;28;20621;-85
2022/03/30 01:59:46;;;;;;;47.38;24.80;;;4.50;99.90;;;;;;5013559;28;20069;-85
2022/03/30 02:02:13;;;;;;;46.67;24.00;;;4.50;99.90;;;;;;5012510;28;20141;-85
2022/03/30 02:04:40;;;;;;;49.10;25.42;;;4.50;99.90;;;;;;5013701;28;20058;-86
2022/03/30 02:07:09;;;;;;;46.88;25.45;;;4.60;99.90;;;;;;5012999;28;20530;-86
2022/03/30 02:09:37;;;;;;;46.05;24.52;;;4.60;99.90;;;;;;5013642;28;20045;-85
2022/03/30 02:12:05;;;;;;;48.00;24.92;;;4.60;99.90;;;;;;5013557;28;20124;-85
2022/03/30 02:14:32;;;;;;;56.03;26.92;;;4.50;99.90;;;;;;5012165;28;20577;-85
2022/03/30 02:16:59;;;;;;;53.55;26.70;;;4.50;99.90;;;;;;5013467;28;20070;-85
2022/03/30 02:19:26;;;;;;;50.83;26.40;;;4.50;99.90;;;;;;5013612;28;20089;-86
2022/03/30 02:21:53;;;;;;;51.67;26.58;;;4.60;99.90;;;;;;5012335;28;20053;-86
2022/03/30 02:24:20;;;;;;;44.45;25.55;;;4.60;99.90;;;;;;5013243;28;20056;-85
2022/03/30 02:26:47;;;;;;;47.38;25.48;;;4.60;99.90;;;;;;5012274;28;20080;-86
2022/03/30 02:29:14;;;;;;;52.55;27.80;;;4.70;99.90;;;;;;5012302;28;20056;-86
2022/03/30 02:31:44;;;;;;;52.13;27.42;;;4.70;99.90;;;;;;5012032;28;20050;-86
2022/03/30 02:34:11;;;;;;;49.67;26.55;;;4.60;99.90;;;;;;5013238;28;20057;-85
2022/03/30 02:36:39;;;;;;;43.95;24.55;;;4.60;99.90;;;;;;5012123;28;20057;-86
2022/03/30 02:39:05;;;;;;;52.53;26.90;;;4.60;99.90;;;;;;5013290;28;20124;-85
2022/03/30 02:41:32;;;;;;;48.22;26.20;;;4.60;99.90;;;;;;5012173;28;20056;-86
2022/03/30 02:43:59;;;;;;;49.17;26.70;;;4.60;99.90;;;;;;5013126;28;20133;-86
2022/03/30 02:46:26;;;;;;;52.05;27.90;;;4.50;99.90;;;;;;5012253;28;20053;-86
2022/03/30 02:48:53;;;;;;;53.88;27.40;;;4.30;99.90;;;;;;5012048;28;20458;-86
2022/03/30 02:51:20;;;;;;;52.67;28.02;;;4.40;99.90;;;;;;5011994;28;20438;-86
2022/03/30 02:53:46;;;;;;;56.00;28.35;;;4.40;99.90;;;;;;5011878;28;20069;-86
2022/03/30 02:56:13;;;;;;;49.35;26.95;;;4.30;99.90;;;;;;5011685;28;20050;-86
2022/03/30 02:58:40;;;;;;;48.63;26.48;;;4.30;99.90;;;;;;5011829;28;20077;-86
2022/03/30 03:01:07;;;;;;;58.80;29.33;;;4.40;99.90;;;;;;5013240;28;20129;-86
2022/03/30 03:03:33;;;;;;;50.53;28.95;;;4.30;99.90;;;;;;5012940;28;20054;-86
2022/03/30 03:06:00;;;;;;;52.33;27.60;;;4.30;99.90;;;;;;5011540;28;20050;-85
2022/03/30 03:08:27;;;;;;;47.20;26.50;;;4.30;99.90;;;;;;5012030;28;20069;-85
2022/03/30 03:10:56;;;;;;;51.72;26.88;;;4.40;99.90;;;;;;5013132;28;20157;-85
2022/03/30 03:13:22;;;;;;;56.25;27.92;;;4.40;99.90;;;;;;5011818;28;20052;-86
2022/03/30 03:15:49;;;;;;;59.75;28.35;;;4.50;99.90;;;;;;5012942;28;20080;-86
2022/03/30 03:18:18;;;;;;;51.72;27.20;;;4.60;99.90;;;;;;5015508;28;20050;-85
2022/03/30 03:20:47;;;;;;;47.25;25.98;;;4.60;99.90;;;;;;5016835;28;20133;-85
2022/03/30 03:23:15;;;;;;;52.40;27.27;;;4.70;99.90;;;;;;5015479;28;20413;-85
2022/03/30 03:25:43;;;;;;;49.50;27.17;;;4.60;99.90;;;;;;5015602;28;20081;-85
2022/03/30 03:28:11;;;;;;;60.97;27.23;;;4.70;99.90;;;;;;5016580;28;20466;-85
2022/03/30 03:30:38;;;;;;;58.75;27.50;;;4.70;99.90;;;;;;5016780;28;20125;-85
2022/03/30 03:33:06;;;;;;;54.42;25.65;;;4.70;99.90;;;;;;5016437;28;20495;-86
2022/03/30 03:35:34;;;;;;;50.60;25.45;;;4.80;99.90;;;;;;5015661;28;20049;-85
2022/03/30 03:38:03;;;;;;;54.90;27.05;;;4.90;99.90;;;;;;5015266;28;20060;-86
2022/03/30 03:40:31;;;;;;;45.90;25.73;;;4.80;99.90;;;;;;5015262;28;20050;-86
2022/03/30 03:42:59;;;;;;;44.92;26.35;;;4.70;99.90;;;;;;5016070;28;20056;-86
2022/03/30 03:45:27;;;;;;;46.90;25.25;;;4.80;99.90;;;;;;5015122;28;20046;-86
2022/03/30 03:47:55;;;;;;;46.88;26.45;;;4.80;99.90;;;;;;5015452;28;20050;-85
2022/03/30 03:50:21;;;;;;;47.55;26.27;;;4.70;99.90;;;;;;5015190;28;20054;-86
2022/03/30 03:52:48;;;;;;;50.22;27.17;;;4.70;99.90;;;;;;5015121;28;20471;-86
2022/03/30 03:55:20;;;;;;;53.40;27.27;;;4.60;99.90;;;;;;5014943;28;20052;-86
2022/03/30 03:57:47;;;;;;;54.00;26.67;;;4.70;99.90;;;;;;5014780;28;20462;-86
2022/03/30 04:00:14;;;;;;;53.83;26.45;;;4.60;99.90;;;;;;5014370;28;20570;-86
2022/03/30 04:02:41;;;;;;;55.97;27.75;;;4.50;99.90;;;;;;5016120;28;20134;-85
2022/03/30 04:05:10;;;;;;;54.83;27.25;;;4.50;99.90;;;;;;5014710;28;20561;-86
2022/03/30 04:07:40;;;;;;;63.75;30.15;;;4.50;99.90;;;;;;5015922;28;20447;-86
2022/03/30 04:10:08;;;;;;;62.50;30.08;;;4.40;99.90;;;;;;5015274;28;20050;-83
2022/03/30 04:12:35;;;;;;;65.90;29.42;;;4.30;99.90;;;;;;5014607;28;20557;-86
2022/03/30 04:15:02;;;;;;;60.58;30.45;;;4.30;99.90;;;;;;5015748;28;20510;-86
2022/03/30 04:17:29;;;;;;;61.45;30.73;;;4.30;99.90;;;;;;5014508;28;20510;-86
2022/03/30 04:19:56;;;;;;;70.82;32.40;;;4.30;99.90;;;;;;5014823;28;20046;-85
2022/03/30 04:22:23;;;;;;;65.28;31.02;;;4.20;99.90;;;;;;5014619;28;20046;-85
2022/03/30 04:24:50;;;;;;;64.75;33.92;;;4.30;99.90;;;;;;5014575;28;20414;-85
2022/03/30 04:27:17;;;;;;;59.58;32.28;;;4.40;99.90;;;;;;5013022;28;20085;-85
2022/03/30 04:29:44;;;;;;;63.10;32.67;;;4.40;99.90;;;;;;5014773;28;20050;-83
2022/03/30 04:32:11;;;;;;;67.38;33.33;;;4.40;99.90;;;;;;5014383;28;20088;-85
2022/03/30 04:34:37;;;;;;;71.45;35.03;;;4.40;99.90;;;;;;5014370;28;20133;-86
2022/03/30 04:37:04;;;;;;;66.55;32.92;;;4.40;99.90;;;;;;5014269;28;20554;-84
2022/03/30 04:39:31;;;;;;;73.72;32.97;;;4.40;99.90;;;;;;5014196;28;20140;-86
2022/03/30 04:41:58;;;;;;;59.45;31.33;;;4.50;99.90;;;;;;5015467;28;20133;-85
2022/03/30 04:44:25;;;;;;;66.90;33.63;;;4.50;99.90;;;;;;5015076;28;20611;-86
2022/03/30 04:46:53;;;;;;;64.00;32.22;;;4.50;99.90;;;;;;5015213;28;20050;-85
2022/03/30 04:49:21;;;;;;;59.55;30.35;;;4.50;99.90;;;;;;5013969;28;20054;-86
2022/03/30 04:51:48;;;;;;;56.17;30.98;;;4.60;99.90;;;;;;5014117;28;20081;-86
2022/03/30 04:54:17;;;;;;;61.15;28.83;;;4.60;99.90;;;;;;5014890;28;20100;-85
2022/03/30 04:56:45;;;;;;;63.65;30.27;;;4.60;99.90;;;;;;5015033;28;20455;-86
2022/03/30 04:59:12;;;;;;;66.75;30.83;;;4.60;99.90;;;;;;5013342;28;20061;-85
2022/03/30 05:01:39;;;;;;;63.28;29.42;;;4.60;99.90;;;;;;5013917;28;20052;-86
2022/03/30 05:04:07;;;;;;;59.17;27.08;;;4.60;99.90;;;;;;5013678;28;20049;-85
2022/03/30 05:06:34;;;;;;;58.72;27.17;;;4.50;99.90;;;;;;5013513;28;20056;-86
2022/03/30 05:09:01;;;;;;;51.40;26.35;;;4.50;99.90;;;;;;5013629;28;20447;-86
2022/03/30 05:11:28;;;;;;;59.28;27.35;;;4.50;99.90;;;;;;5013424;28;20054;-86
2022/03/30 05:13:55;;;;;;;56.00;26.83;;;4.40;99.90;;;;;;5013431;28;20129;-84
2022/03/30 05:16:22;;;;;;;54.72;26.55;;;4.40;99.90;;;;;;5013521;28;20060;-86
2022/03/30 05:18:49;;;;;;;66.07;31.92;;;4.40;99.90;;;;;;5013902;28;20049;-86
2022/03/30 05:21:16;;;;;;;64.57;34.72;;;4.50;99.90;;;;;;5013118;28;20077;-86
2022/03/30 05:23:43;;;;;;;61.03;31.80;;;4.40;99.90;;;;;;5013532;28;20133;-86
2022/03/30 05:26:09;;;;;;;57.03;28.17;;;4.40;99.90;;;;;;5013266;28;20128;-86
2022/03/30 05:28:38;;;;;;;55.67;24.70;;;4.50;99.90;;;;;;5014360;28;20129;-86
2022/03/30 05:31:06;;;;;;;52.05;24.98;;;4.40;99.90;;;;;;5013334;28;20053;-86
2022/03/30 05:33:34;;;;;;;52.53;23.63;;;4.40;99.90;;;;;;5013324;28;20471;-86
2022/03/30 05:36:01;;;;;;;46.78;22.70;;;4.40;99.90;;;;;;5014376;28;20053;-85
2022/03/30 05:38:28;;;;;;;45.70;24.77;;;4.30;99.90;;;;;;5012879;28;20100;-85
2022/03/30 05:40:55;;;;;;;49.60;24.25;;;4.30;99.90;;;;;;5013135;28;20065;-85
2022/03/30 05:43:22;;;;;;;51.78;23.85;;;4.30;99.90;;;;;;5014066;28;20141;-85
2022/03/30 05:45:49;;;;;;;52.80;25.15;;;4.30;99.90;;;;;;5012877;28;20133;-85
2022/03/30 05:48:17;;;;;;;58.35;24.92;;;4.20;99.90;;;;;;5012832;28;20063;-85
2022/03/30 05:50:45;;;;;;;55.85;25.63;;;4.20;99.90;;;;;;5014144;28;20081;-85
2022/03/30 05:53:14;;;;;;;57.30;26.52;;;4.20;99.90;;;;;;5013002;28;20064;-85
2022/03/30 05:55:44;;;;;;;54.75;24.92;;;4.20;99.90;;;;;;5013927;28;20383;-85
2022/03/30 05:58:12;;;;;;;59.70;26.65;;;4.20;99.90;;;;;;5012801;28;20108;-85
2022/03/30 06:00:39;;;;;;;55.20;25.17;;;4.20;99.90;;;;;;5013182;28;20417;-84
2022/03/30 06:03:06;;;;;;;52.58;24.98;;;4.30;99.90;;;;;;5012431;28;20137;-85
2022/03/30 06:05:33;;;;;;;53.22;24.25;;;4.40;99.90;;;;;;5012680;28;20050;-84
2022/03/30 06:08:00;;;;;;;54.60;24.67;;;4.40;99.90;;;;;;5012651;28;20046;-85
2022/03/30 06:10:28;;;;;;;54.05;25.17;;;4.40;99.90;;;;;;5012524;28;20045;-85
2022/03/30 06:12:56;;;;;;;64.20;32.55;;;4.40;99.90;;;;;;5012432;28;20137;-84
2022/03/30 06:15:23;;;;;;;59.60;26.08;;;4.40;99.90;;;;;;5012471;28;20086;-85
2022/03/30 06:17:53;;;;;;;51.35;24.52;;;4.40;99.90;;;;;;5013517;28;20056;-85
2022/03/30 06:20:22;;;;;;;55.40;26.15;;;4.50;99.90;;;;;;5012302;28;20054;-85
2022/03/30 06:22:48;;;;;;;52.92;25.45;;;4.50;99.90;;;;;;5012480;28;20045;-85
2022/03/30 06:25:16;;;;;;;51.33;23.50;;;4.50;99.90;;;;;;5012186;28;20120;-85
2022/03/30 06:27:42;;;;;;;46.97;23.13;;;4.50;99.90;;;;;;5013355;28;20148;-86
2022/03/30 06:30:10;;;;;;;50.47;23.67;;;4.50;99.90;;;;;;5012288;28;20085;-85
2022/03/30 06:32:37;;;;;;;54.35;24.10;;;4.50;99.90;;;;;;5012162;28;20060;-85
2022/03/30 06:35:09;;;;;;;57.10;24.95;;;4.60;99.90;;;;;;5013333;28;20483;-85
2022/03/30 06:37:36;;;;;;;51.67;25.15;;;4.50;99.90;;;;;;5014825;28;20081;-85
2022/03/30 06:40:03;;;;;;;58.55;25.92;;;4.50;99.90;;;;;;5028286;28;20080;-85
2022/03/30 06:42:30;;;;;;;53.25;25.08;;;4.40;99.90;;;;;;5031614;28;20569;-85
2022/03/30 06:44:57;;;;;;;59.25;25.65;;;4.30;99.90;;;;;;5033102;28;20080;-85
2022/03/30 06:47:24;;;;;;;51.80;24.83;;;4.20;99.90;;;;;;5032582;28;20512;-86
2022/03/30 06:49:50;;;;;;;49.38;24.75;;;4.20;99.90;;;;;;5031624;28;20144;-85
2022/03/30 06:52:17;;;;;;;57.58;27.35;;;4.20;99.90;;;;;;5031574;28;20049;-85
2022/03/30 06:54:44;;;;;;;56.38;26.13;;;4.30;99.90;;;;;;5032192;28;20132;-85
2022/03/30 06:57:11;;;;;;;62.35;27.23;;;4.20;99.90;;;;;;5032676;28;20402;-85
2022/03/30 06:59:38;;;;;;;59.17;26.23;;;4.30;99.90;;;;;;5032301;28;20080;-85
2022/03/30 07:02:05;;;;;;;55.35;27.25;;;4.30;99.90;;;;;;5030811;28;20132;-85
2022/03/30 07:04:35;;;;;;;56.58;25.15;;;4.20;99.90;;;;;;5032837;28;20053;-85
2022/03/30 07:12:34;;;;;;;56.17;28.65;;;4.40;99.90;;;;;;5032697;28;20516;-86
2022/03/30 07:15:01;;;;;;;60.40;25.08;;;4.30;99.90;;;;;;5032733;28;20053;-86
2022/03/30 07:17:30;;;;;;;61.83;28.20;;;4.30;99.90;;;;;;5032542;28;20049;-85
2022/03/30 07:19:57;;;;;;;49.80;24.45;;;4.20;99.90;;;;;;5031029;28;20049;-85
2022/03/30 07:22:24;;;;;;;51.67;24.90;;;4.20;99.90;;;;;;5031271;28;20140;-85
2022/03/30 07:24:51;;;;;;;56.22;25.90;;;4.20;99.90;;;;;;5032677;28;20179;-85
2022/03/30 07:27:17;;;;;;;55.85;27.88;;;4.30;99.90;;;;;;5031599;28;20052;-85
2022/03/30 07:29:44;;;;;;;57.50;29.65;;;4.30;99.90;;;;;;5031424;28;20140;-85
2022/03/30 07:32:11;;;;;;;65.80;30.58;;;4.20;99.90;;;;;;5031840;28;20564;-85
2022/03/30 07:34:38;;;;;;;57.90;25.23;;;4.20;99.90;;;;;;5030942;28;20141;-84
2022/03/30 07:37:05;;;;;;;58.17;24.90;;;4.20;99.90;;;;;;5030890;28;20493;-85
2022/03/30 07:39:31;;;;;;;55.22;25.13;;;4.20;99.90;;;;;;5032422;28;20057;-84
2022/03/30 07:41:58;;;;;;;57.40;24.30;;;4.00;99.90;;;;;;5030814;28;20042;-84
2022/03/30 07:44:26;;;;;;;53.88;23.55;;;3.90;99.90;;;;;;5030891;28;20053;-84
2022/03/30 07:46:53;;;;;;;58.40;24.70;;;3.80;99.90;;;;;;5030993;28;20046;-85
2022/03/30 07:49:20;;;;;;;46.58;23.17;;;3.80;99.90;;;;;;5030764;28;20046;-85
2022/03/30 07:51:46;;;;;;;53.78;24.10;;;3.80;99.90;;;;;;5032116;28;20045;-84
2022/03/30 07:54:16;;;;;;;54.05;24.30;;;3.70;99.90;;;;;;5032027;28;20088;-85
2022/03/30 07:56:43;;;;;;;66.15;25.52;;;3.80;99.90;;;;;;5032336;28;20410;-85
2022/03/30 07:59:09;;;;;;;61.25;24.08;;;3.80;99.90;;;;;;5031873;28;20490;-85
2022/03/30 08:01:36;;;;;;;53.58;23.42;;;3.70;99.90;;;;;;5031092;28;20148;-85
2022/03/30 08:04:03;;;;;;;50.05;23.83;;;3.70;99.90;;;;;;5034217;28;20127;-85
2022/03/30 08:06:30;;;;;;;56.75;24.55;;;3.70;99.90;;;;;;5035655;28;20045;-83
2022/03/30 08:08:57;;;;;;;47.10;23.35;;;3.60;99.90;;;;;;5034909;28;20049;-85
2022/03/30 08:11:24;;;;;;;48.67;24.95;;;3.70;99.90;;;;;;5034139;28;20417;-85
2022/03/30 08:13:52;;;;;;;49.42;24.13;;;3.70;99.90;;;;;;5034201;28;20041;-84
2022/03/30 08:16:18;;;;;;;48.78;24.25;;;3.70;99.90;;;;;;5033925;28;20100;-84
2022/03/30 08:18:45;;;;;;;59.17;25.90;;;3.60;99.90;;;;;;5033838;28;20072;-84
2022/03/30 08:23:57;;;;;;;56.40;33.95;;;3.50;99.90;;;;;;5035194;28;20136;-84
2022/03/30 08:26:24;;;;;;;40.42;20.77;;;3.40;99.90;;;;;;5033814;28;20388;-84
2022/03/30 08:28:51;;;;;;;50.95;25.27;;;3.30;99.90;;;;;;5034926;28;20050;-84
2022/03/30 08:31:18;;;;;;;123.57;58.95;;;3.20;99.90;;;;;;5033813;28;20080;-84
2022/03/30 08:33:44;;;;;;;53.13;23.13;;;3.20;99.90;;;;;;5033733;28;20482;-84
2022/03/30 08:36:11;;;;;;;355.75;138.68;;;3.10;99.90;;;;;;5034885;28;20071;-84
2022/03/30 08:38:38;;;;;;;171.50;70.55;;;3.00;99.90;;;;;;5034476;28;20482;-84
2022/03/30 08:41:05;;;;;;;125.97;57.40;;;3.00;99.90;;;;;;5034287;28;20303;-83
2022/03/30 08:43:32;;;;;;;130.88;65.72;;;2.90;99.90;;;;;;5033358;28;20096;-84
2022/03/30 08:46:00;;;;;;;35.80;17.83;;;2.80;99.90;;;;;;5034740;28;20541;-84
2022/03/30 08:48:28;;;;;;;47.53;26.35;;;2.80;99.90;;;;;;5034954;28;20053;-83
2022/03/30 08:50:58;;;;;;;38.90;22.23;;;2.80;99.90;;;;;;5034448;28;20141;-83
2022/03/30 08:53:26;;;;;;;39.83;20.48;;;2.80;99.90;;;;;;5034544;28;20081;-84
2022/03/30 08:55:54;;;;;;;44.15;23.83;;;2.80;99.90;;;;;;5033183;28;20056;-84
2022/03/30 08:58:20;;;;;;;41.83;20.67;;;2.80;99.90;;;;;;5034330;28;20084;-83
2022/03/30 09:00:47;;;;;;;55.83;30.35;;;2.70;99.90;;;;;;5034368;28;20464;-83
2022/03/30 09:03:17;;;;;;;31.45;18.65;;;2.60;99.90;;;;;;5034291;28;20085;-84
2022/03/30 09:05:44;;;;;;;58.08;29.50;;;2.70;99.90;;;;;;5034402;28;20045;-84
2022/03/30 09:08:20;;;;;;;40.08;22.77;;;2.60;99.90;;;;;;5032776;28;20560;-83
2022/03/30 09:10:51;;;;;;;29.13;17.23;;;2.60;99.90;;;;;;5032932;28;20060;-84
2022/03/30 09:13:17;;;;;;;34.03;17.13;;;2.60;99.90;;;;;;5032119;28;20145;-84
2022/03/30 09:15:50;;;;;;;29.67;17.35;;;2.50;99.90;;;;;;5033060;28;20084;-84
2022/03/30 09:18:19;;;;;;;24.95;15.55;;;2.30;99.90;;;;;;5032905;28;20084;-84
2022/03/30 09:20:48;;;;;;;28.17;16.15;;;2.10;99.90;;;;;;5033794;28;20088;-85
2022/03/30 09:23:25;;;;;;;32.90;17.52;;;2.00;99.90;;;;;;5034523;28;20085;-84
2022/03/30 09:25:54;;;;;;;26.67;15.85;;;1.90;99.90;;;;;;5033108;28;20057;-84
2022/03/30 09:28:23;;;;;;;34.35;19.52;;;2.00;99.90;;;;;;5034084;28;20080;-84
2022/03/30 09:30:51;;;;;;;27.17;17.00;;;2.00;99.90;;;;;;5032642;28;20056;-84
2022/03/30 09:33:21;;;;;;;34.28;16.27;;;1.90;99.90;;;;;;5032433;28;20512;-84
2022/03/30 09:35:48;;;;;;;33.70;19.23;;;1.80;99.90;;;;;;5033001;28;20092;-85
2022/03/30 09:38:18;;;;;;;30.88;18.40;;;1.70;99.90;;;;;;5033105;28;20085;-85
2022/03/30 09:41:03;;;;;;;29.25;16.90;;;1.50;99.90;;;;;;5032844;28;20604;-86
2022/03/30 09:43:34;;;;;;;29.48;15.88;;;1.50;99.90;;;;;;5033308;28;20057;-86
2022/03/30 09:46:09;;;;;;;23.15;15.27;;;1.40;99.90;;;;;;5033924;28;20140;-86
2022/03/30 09:48:49;;;;;;;26.40;15.95;;;1.30;99.90;;;;;;5033226;28;20076;-85
2022/03/30 09:51:17;;;;;;;28.48;16.98;;;1.30;99.90;;;;;;5032797;28;20136;-85
2022/03/30 09:53:46;;;;;;;26.80;16.02;;;1.30;99.90;;;;;;5032823;28;20136;-86
2022/03/30 09:56:21;;;;;;;30.42;17.25;;;1.30;99.90;;;;;;5032846;28;20099;-85
2022/03/30 09:58:49;;;;;;;34.42;19.13;;;1.30;99.90;;;;;;5033746;28;20052;-85
2022/03/30 10:01:20;;;;;;;31.48;19.20;;;1.30;99.90;;;;;;5032416;28;20081;-85
2022/03/30 10:03:51;;;;;;;34.80;18.17;;;1.30;99.90;;;;;;5032745;28;20050;-85
2022/03/30 10:06:31;;;;;;;27.02;15.68;;;1.20;99.90;;;;;;5033691;28;20057;-85
2022/03/30 10:09:03;;;;;;;26.02;17.38;;;1.30;99.90;;;;;;5033157;28;20049;-85
2022/03/30 10:11:30;;;;;;;24.95;16.73;;;1.30;99.90;;;;;;5032049;28;20132;-85
2022/03/30 10:13:59;;;;;;;24.77;16.05;;;1.30;99.90;;;;;;5033306;28;20084;-84
2022/03/30 10:16:43;;;;;;;29.02;15.73;;;1.20;99.90;;;;;;5033215;28;20046;-84
2022/03/30 10:19:11;;;;;;;24.63;15.23;;;1.20;99.90;;;;;;5031487;28;20084;-83
2022/03/30 10:21:49;;;;;;;26.52;16.40;;;1.20;99.90;;;;;;5031747;28;20108;-84
2022/03/30 10:24:49;;;;;;;28.02;17.95;;;1.20;99.90;;;;;;5032893;28;20514;-84
2022/03/30 10:27:39;;;;;;;24.77;16.52;;;1.20;99.90;;;;;;5032701;28;20490;-84
2022/03/30 10:30:07;;;;;;;26.77;16.15;;;1.20;99.90;;;;;;5031610;28;20514;-84
2022/03/30 10:32:37;;;;;;;41.83;21.98;;;1.20;99.90;;;;;;5031673;28;20046;-84
2022/03/30 10:35:12;;;;;;;32.47;19.77;;;1.20;99.90;;;;;;5032683;28;20052;-84
2022/03/30 10:37:47;;;;;;;32.22;17.63;;;1.30;99.90;;;;;;5036579;28;20482;-84
2022/03/30 10:40:22;;;;;;;26.75;16.73;;;1.40;99.90;;;;;;5032420;28;20081;-83
2022/03/30 10:42:49;;;;;;;27.50;17.00;;;1.30;99.90;;;;;;5031298;28;20053;-84
2022/03/30 10:45:28;;;;;;;27.33;16.67;;;1.30;99.90;;;;;;5031550;28;20391;-84
2022/03/30 10:48:23;;;;;;;31.90;19.55;;;1.20;99.90;;;;;;5031408;28;20502;-84
2022/03/30 10:50:50;;;;;;;28.83;17.63;;;1.20;99.90;;;;;;5031297;28;20144;-83
2022/03/30 10:53:32;;;;;;;30.60;19.10;;;1.30;99.90;;;;;;5032853;28;20046;-84
2022/03/30 10:56:07;;;;;;;26.55;16.77;;;1.30;99.90;;;;;;5032600;28;20081;-84
2022/03/30 10:58:36;;;;;;;27.27;18.90;;;1.30;99.90;;;;;;5032331;28;20103;-83
2022/03/30 11:01:15;;;;;;;31.02;16.15;;;1.30;99.90;;;;;;5031154;28;20072;-83
2022/03/30 11:03:57;;;;;;;33.33;19.17;;;1.30;99.90;;;;;;5031350;28;20490;-83
2022/03/30 11:06:24;;;;;;;23.67;15.88;;;1.30;99.90;;;;;;5032624;28;20084;-84
2022/03/30 11:08:55;;;;;;;29.60;16.77;;;1.30;99.90;;;;;;5032639;28;20053;-83
2022/03/30 11:11:26;;;;;;;30.77;19.35;;;1.30;99.90;;;;;;5031024;28;20057;-83
2022/03/30 11:14:34;;;;;;;26.33;16.00;;;1.40;99.90;;;;;;5031441;28;20068;-83
2022/03/30 11:17:09;;;;;;;25.95;16.90;;;1.40;99.90;;;;;;5031264;28;20050;-84
2022/03/30 11:19:57;;;;;;;26.98;16.85;;;1.40;99.90;;;;;;5030814;28;20104;-83
2022/03/30 11:22:36;;;;;;;33.05;21.30;;;1.50;99.90;;;;;;5032317;28;20568;-84
2022/03/30 11:25:10;;;;;;;37.22;22.08;;;1.50;99.90;;;;;;5032526;28;20049;-83
2022/03/30 11:27:38;;;;;;;40.60;23.85;;;1.50;99.90;;;;;;5032302;28;20124;-83
2022/03/30 11:30:28;;;;;;;38.65;24.10;;;1.60;99.90;;;;;;5030627;28;20537;-84
2022/03/30 11:32:59;;;;;;;36.80;24.42;;;1.60;99.90;;;;;;5031123;28;20062;-84
2022/03/30 11:35:28;;;;;;;42.40;28.08;;;1.60;99.90;;;;;;5030991;28;20049;-84
2022/03/30 11:38:10;;;;;;;51.08;28.33;;;1.70;99.90;;;;;;5033914;28;20053;-84
2022/03/30 11:40:40;;;;;;;54.97;35.88;;;1.80;99.90;;;;;;5034390;28;20046;-84
2022/03/30 11:43:09;;;;;;;44.72;27.55;;;1.80;99.90;;;;;;5034231;28;20128;-84
2022/03/30 11:45:56;;;;;;;47.80;29.67;;;1.80;99.90;;;;;;5033917;28;20054;-84
2022/03/30 11:48:25;;;;;;;47.17;30.05;;;1.90;99.90;;;;;;5034500;28;20052;-84
2022/03/30 11:50:58;;;;;;;46.63;29.20;;;1.90;99.90;;;;;;5035366;28;20057;-84
2022/03/30 11:53:28;;;;;;;33.33;22.95;;;2.00;99.90;;;;;;5036555;28;20103;-84
2022/03/30 11:56:05;;;;;;;32.65;23.48;;;2.00;99.90;;;;;;5034606;28;20494;-84
2022/03/30 11:58:37;;;;;;;34.70;24.73;;;2.00;99.90;;;;;;5034418;28;20052;-84
2022/03/30 12:01:07;;;;;;;35.92;23.60;;;2.10;99.90;;;;;;5034242;28;20157;-84
2022/03/30 12:03:35;;;;;;;27.02;20.25;;;2.10;99.90;;;;;;5034277;28;20517;-84
2022/03/30 12:06:04;;;;;;;25.67;18.23;;;2.20;99.90;;;;;;5034659;28;20413;-84
2022/03/30 12:08:50;;;;;;;23.58;18.45;;;2.20;99.90;;;;;;5035508;28;20049;-84
2022/03/30 12:11:19;;;;;;;27.35;19.50;;;2.10;99.90;;;;;;5034551;28;20049;-83
2022/03/30 12:13:51;;;;;;;20.77;16.65;;;2.10;99.90;;;;;;5032947;28;20057;-83
2022/03/30 12:16:18;;;;;;;21.00;15.65;;;2.20;99.90;;;;;;5034429;28;20085;-83
2022/03/30 12:18:51;;;;;;;16.00;14.02;;;2.20;99.90;;;;;;5033687;28;20103;-83
2022/03/30 12:21:24;;;;;;;17.07;14.10;;;2.20;99.90;;;;;;5033374;28;20144;-84
2022/03/30 12:23:58;;;;;;;13.70;12.27;;;2.30;99.90;;;;;;5034697;28;20391;-83
2022/03/30 12:26:52;;;;;;;11.85;10.57;;;2.50;99.90;;;;;;5034508;28;20053;-83
2022/03/30 12:29:19;;;;;;;;;;;2.80;99.90;;;;;;5033542;28;20046;-84
2022/03/30 12:31:59;;;;;;;11.68;10.23;;;2.80;99.90;;;;;;5034774;28;19967;-84
2022/03/30 12:34:30;;;;;;;11.68;9.80;;;2.90;99.90;;;;;;5034478;28;20503;-83
2022/03/30 12:36:59;;;;;;;10.90;9.80;;;3.10;99.90;;;;;;5033337;28;20456;-83
2022/03/30 12:39:28;;;;;;;11.90;9.73;;;3.00;99.90;;;;;;5032928;28;20533;-84
2022/03/30 12:42:01;;;;;;;14.10;9.05;;;2.90;99.90;;;;;;5033310;28;20483;-84
2022/03/30 12:44:38;;;;;;;11.05;9.95;;;3.00;99.90;;;;;;5033284;28;20061;-84
2022/03/30 12:47:28;;;;;;;27.50;19.88;;;3.00;99.90;;;;;;5032853;28;20045;-84
2022/03/30 12:49:56;;;;;;;12.88;10.65;;;2.90;99.90;;;;;;5033643;28;20079;-84
2022/03/30 12:52:35;;;;;;;11.65;10.45;;;3.00;99.90;;;;;;5033228;28;20486;-83
2022/03/30 12:55:14;;;;;;;11.32;9.88;;;3.00;99.90;;;;;;5033192;28;20064;-84
2022/03/30 12:58:00;;;;;;;10.10;9.10;;;3.00;99.90;;;;;;5033842;28;20141;-84
2022/03/30 13:00:37;;;;;;;11.68;10.48;;;3.10;99.90;;;;;;5033431;28;20602;-84